Time;durP1;ratioP1;P1;durP2;ratioP2;P2;SDS_P1;SDS_P2;PMS_P1;PMS_P2;Temp;Humidity;BMP_temperature;BMP_pressure;BME280_temperature;BME280_humidity;BME280_pressure;Samples;Min_cycle;Max_cycle;Signal;HPM_P1;HPM_P2
2023/05/18 00:01:14;;;;;;;;;;;17.40;53.70;;;;;;5078915;28;19952;-82
2023/05/18 00:03:42;;;;;;;;;;;17.40;53.70;;;;;;5076743;28;20055;-82
2023/05/18 00:06:08;;;;;;;;;;;17.40;53.80;;;;;;5077757;28;19908;-82
2023/05/18 00:08:37;;;;;;;;;;;17.40;53.80;;;;;;5077904;28;20014;-82
2023/05/18 00:11:03;;;;;;;;;;;17.30;53.80;;;;;;5077448;28;20159;-82
2023/05/18 00:13:32;;;;;;;;;;;17.30;53.80;;;;;;5078422;28;20263;-82
2023/05/18 00:15:57;;;;;;;;;;;17.30;53.80;;;;;;5078407;28;19995;-82
2023/05/18 00:18:23;;;;;;;;;;;17.30;53.80;;;;;;5076633;28;20015;-82
2023/05/18 00:20:58;;;;;;;;;;;17.30;53.90;;;;;;5077238;28;19908;-82
2023/05/18 00:23:25;;;;;;;;;;;17.30;53.90;;;;;;5077333;28;20327;-82
2023/05/18 00:25:51;;;;;;;;;;;17.30;53.90;;;;;;5076337;28;20015;-82
2023/05/18 00:28:19;;;;;;;;;;;17.20;53.90;;;;;;5077474;28;20003;-82
2023/05/18 00:30:45;;;;;;;;;;;17.20;53.90;;;;;;5077585;28;19916;-82
2023/05/18 00:33:14;;;;;;;;;;;17.20;53.90;;;;;;5076281;28;20428;-82
2023/05/18 00:35:43;;;;;;;;;;;17.20;53.90;;;;;;5077694;28;19909;-82
2023/05/18 00:38:14;;;;;;;;;;;17.20;54.00;;;;;;5076438;28;19913;-82
2023/05/18 00:40:40;;;;;;;;;;;17.20;54.00;;;;;;5078591;28;19915;-82
2023/05/18 00:43:06;;;;;;;;;;;17.20;54.00;;;;;;5077973;28;19916;-82
2023/05/18 00:45:35;;;;;;;;;;;17.20;54.10;;;;;;5079985;28;19908;-82
2023/05/18 00:48:06;;;;;;;;;;;17.10;54.00;;;;;;5079372;28;19965;-82
2023/05/18 00:50:35;;;;;;;;;;;17.10;54.10;;;;;;5080361;28;19908;-82
2023/05/18 00:53:03;;;;;;;;;;;17.10;54.10;;;;;;5079984;28;20016;-82
2023/05/18 00:55:32;;;;;;;;;;;17.10;54.10;;;;;;5079413;28;19999;-82
2023/05/18 00:58:01;;;;;;;;;;;17.10;54.20;;;;;;5078097;28;19916;-82
2023/05/18 01:00:27;;;;;;;;;;;17.10;54.10;;;;;;5076181;28;20375;-82
2023/05/18 01:02:53;;;;;;;;;;;17.00;54.10;;;;;;5076198;28;19934;-82
2023/05/18 01:05:24;;;;;;;;;;;17.10;54.20;;;;;;5076781;28;20010;-82
2023/05/18 01:07:50;;;;;;;;;;;17.00;54.10;;;;;;5074519;28;19916;-82
2023/05/18 01:10:23;;;;;;;;;;;17.00;54.10;;;;;;5074499;28;19912;-82
2023/05/18 01:13:21;;;;;;;;;;;17.00;54.10;;;;;;5075354;28;19916;-82
2023/05/18 01:15:51;;;;;;;;;;;17.00;54.10;;;;;;5041505;28;19905;-82
2023/05/18 01:18:27;;;;;;;;;;;17.00;54.20;;;;;;5076786;28;19920;-82
2023/05/18 01:20:56;;;;;;;;;;;17.00;54.20;;;;;;5075737;28;20410;-82
2023/05/18 01:23:40;;;;;;;;;;;16.90;54.20;;;;;;5074883;28;19979;-82
2023/05/18 01:26:23;;;;;;;;;;;16.90;54.20;;;;;;5075822;28;20159;-82
2023/05/18 01:28:49;;;;;;;;;;;16.90;54.20;;;;;;5075910;28;19991;-82
2023/05/18 01:31:18;;;;;;;;;;;16.90;54.20;;;;;;5075521;28;20023;-82
2023/05/18 01:33:43;;;;;;;;;;;16.80;54.20;;;;;;5076454;28;20095;-82
2023/05/18 01:36:10;;;;;;;;;;;16.80;54.20;;;;;;5076548;28;20106;-82
2023/05/18 01:38:39;;;;;;;;;;;16.90;54.20;;;;;;5077522;28;19923;-82
2023/05/18 01:41:20;;;;;;;;;;;16.90;54.20;;;;;;5077889;28;19995;-83
2023/05/18 01:43:54;;;;;;;;;;;16.80;54.20;;;;;;5077505;28;20019;-82
2023/05/18 01:46:35;;;;;;;;;;;16.80;54.20;;;;;;5076471;28;20198;-82
2023/05/18 01:49:08;;;;;;;;;;;16.80;54.20;;;;;;5077410;28;19935;-82
2023/05/18 01:51:43;;;;;;;;;;;16.70;54.20;;;;;;5077397;28;19995;-84
2023/05/18 01:54:09;;;;;;;;;;;16.70;54.20;;;;;;5078618;28;20003;-83
2023/05/18 01:56:39;;;;;;;;;;;16.70;54.10;;;;;;5078039;28;19919;-82
2023/05/18 01:59:05;;;;;;;;;;;16.70;54.10;;;;;;5078103;28;19935;-82
2023/05/18 02:01:31;;;;;;;;;;;16.70;54.10;;;;;;5078369;28;20243;-82
2023/05/18 02:03:56;;;;;;;;;;;16.70;54.10;;;;;;5077648;28;19995;-82
2023/05/18 02:06:22;;;;;;;;;;;16.60;54.00;;;;;;5076943;28;20392;-82
2023/05/18 02:08:47;;;;;;;;;;;16.60;54.00;;;;;;5077510;28;19934;-82
2023/05/18 02:11:13;;;;;;;;;;;16.60;54.00;;;;;;5076632;28;19908;-82
2023/05/18 02:13:38;;;;;;;;;;;16.60;54.00;;;;;;5074433;28;20003;-82
2023/05/18 02:16:13;;;;;;;;;;;16.60;54.00;;;;;;5075305;28;19909;-82
2023/05/18 02:18:43;;;;;;;;;;;16.50;53.90;;;;;;5076184;28;20252;-82
2023/05/18 02:21:08;;;;;;;;;;;16.60;54.00;;;;;;5075752;28;19936;-82
2023/05/18 02:23:35;;;;;;;;;;;16.50;53.90;;;;;;5076027;28;20085;-82
2023/05/18 02:26:03;;;;;;;;;;;16.50;53.90;;;;;;5075525;28;19908;-82
2023/05/18 02:28:28;;;;;;;;;;;16.50;53.90;;;;;;5075626;28;19908;-82
2023/05/18 02:31:02;;;;;;;;;;;16.50;53.90;;;;;;5076325;28;20286;-82
2023/05/18 02:33:29;;;;;;;;;;;16.50;54.00;;;;;;5084258;28;19916;-82
2023/05/18 02:35:56;;;;;;;;;;;16.40;54.30;;;;;;5080773;28;20278;-82
2023/05/18 02:38:21;;;;;;;;;;;16.40;53.90;;;;;;5078872;28;19985;-82
2023/05/18 02:40:47;;;;;;;;;;;16.40;54.10;;;;;;5079385;28;20177;-82
2023/05/18 02:43:15;;;;;;;;;;;16.40;53.90;;;;;;5079876;28;19918;-82
2023/05/18 02:45:41;;;;;;;;;;;16.40;54.00;;;;;;5079255;28;20353;-82
2023/05/18 02:48:07;;;;;;;;;;;16.40;54.00;;;;;;5079629;28;20006;-82
2023/05/18 02:50:36;;;;;;;;;;;16.40;54.00;;;;;;5078760;28;20188;-84
2023/05/18 02:53:04;;;;;;;;;;;16.40;54.00;;;;;;5079322;28;19908;-83
2023/05/18 02:55:40;;;;;;;;;;;16.30;53.90;;;;;;5080131;28;19908;-83
2023/05/18 02:58:06;;;;;;;;;;;16.30;54.00;;;;;;5097189;28;20010;-83
2023/05/18 03:00:31;;;;;;;;;;;16.30;54.00;;;;;;5079203;28;19912;-83
2023/05/18 03:02:59;;;;;;;;;;;16.30;54.00;;;;;;5097705;28;19938;-83
2023/05/18 03:05:24;;;;;;;;;;;16.30;54.00;;;;;;5080074;28;19915;-83
2023/05/18 03:07:51;;;;;;;;;;;16.30;54.00;;;;;;5079823;28;19918;-82
2023/05/18 03:10:18;;;;;;;;;;;16.20;54.00;;;;;;5080035;28;19939;-82
2023/05/18 03:12:43;;;;;;;;;;;16.20;54.00;;;;;;5079162;28;19908;-83
2023/05/18 03:15:10;;;;;;;;;;;16.20;54.00;;;;;;5079905;28;20155;-83
2023/05/18 03:17:43;;;;;;;;;;;16.20;54.00;;;;;;5079373;28;19912;-82
2023/05/18 03:20:13;;;;;;;;;;;16.20;54.00;;;;;;5079144;28;19941;-83
2023/05/18 03:22:38;;;;;;;;;;;16.20;54.00;;;;;;5078602;28;19965;-83
2023/05/18 03:25:04;;;;;;;;;;;16.10;54.00;;;;;;5077610;28;20003;-83
2023/05/18 03:27:30;;;;;;;;;;;16.10;54.00;;;;;;5096084;28;19909;-83
2023/05/18 03:29:59;;;;;;;;;;;16.10;54.00;;;;;;5096377;28;19915;-83
2023/05/18 03:32:27;;;;;;;;;;;16.10;54.00;;;;;;5079371;28;20190;-83
2023/05/18 03:34:53;;;;;;;;;;;16.10;54.00;;;;;;5094930;28;19943;-83
2023/05/18 03:37:18;;;;;;;;;;;16.10;54.00;;;;;;5094372;28;19914;-83
2023/05/18 03:39:44;;;;;;;;;;;16.10;54.00;;;;;;5094706;28;20345;-83
2023/05/18 03:42:10;;;;;;;;;;;16.00;54.00;;;;;;5094385;28;20003;-83
2023/05/18 03:44:35;;;;;;;;;;;16.00;54.00;;;;;;5077414;28;19930;-83
2023/05/18 03:47:01;;;;;;;;;;;16.00;54.00;;;;;;5094937;28;19915;-82
2023/05/18 03:49:28;;;;;;;;;;;16.00;54.50;;;;;;5078088;28;20259;-83
2023/05/18 03:51:55;;;;;;;;;;;16.00;54.10;;;;;;5097049;28;20343;-83
2023/05/18 03:54:20;;;;;;;;;;;16.00;54.10;;;;;;5096727;28;19908;-83
2023/05/18 03:56:47;;;;;;;;;;;16.00;54.10;;;;;;5079303;28;20266;-83
2023/05/18 03:59:13;;;;;;;;;;;16.00;54.10;;;;;;5078155;28;20360;-83
2023/05/18 04:01:43;;;;;;;;;;;16.00;54.10;;;;;;5078549;28;19920;-83
2023/05/18 04:04:08;;;;;;;;;;;16.00;54.10;;;;;;5077574;28;19915;-83
2023/05/18 04:06:34;;;;;;;;;;;16.00;54.10;;;;;;5078886;28;19931;-82
2023/05/18 04:09:02;;;;;;;;;;;16.00;54.10;;;;;;5078824;28;19969;-83
2023/05/18 04:11:31;;;;;;;;;;;16.00;54.00;;;;;;5078402;28;20270;-83
2023/05/18 04:13:59;;;;;;;;;;;16.00;54.00;;;;;;5096751;28;19958;-83
2023/05/18 04:16:26;;;;;;;;;;;16.00;54.00;;;;;;5096549;28;20014;-82
2023/05/18 04:18:52;;;;;;;;;;;16.00;54.00;;;;;;5079419;28;20020;-83
2023/05/18 04:21:18;;;;;;;;;;;16.00;54.00;;;;;;5078382;28;19908;-83
2023/05/18 04:23:44;;;;;;;;;;;16.00;54.00;;;;;;5077215;28;19915;-83
2023/05/18 04:26:09;;;;;;;;;;;16.00;54.00;;;;;;5075502;28;19908;-83
2023/05/18 04:28:38;;;;;;;;;;;16.00;54.00;;;;;;5077846;28;19913;-83
2023/05/18 04:31:03;;;;;;;;;;;16.00;54.00;;;;;;5078590;28;19908;-82
2023/05/18 04:33:29;;;;;;;;;;;16.00;54.00;;;;;;5096059;28;20325;-83
2023/05/18 04:35:54;;;;;;;;;;;16.00;54.00;;;;;;5077111;28;19930;-83
2023/05/18 04:38:23;;;;;;;;;;;16.00;54.00;;;;;;5080067;28;20202;-83
2023/05/18 04:40:49;;;;;;;;;;;16.00;54.00;;;;;;5100086;28;19908;-83
2023/05/18 04:43:16;;;;;;;;;;;16.00;54.00;;;;;;5082383;28;19923;-83
2023/05/18 04:45:45;;;;;;;;;;;16.00;53.90;;;;;;5080220;28;19939;-82
2023/05/18 04:48:16;;;;;;;;;;;16.00;53.90;;;;;;5098938;28;19909;-83
2023/05/18 04:50:42;;;;;;;;;;;16.00;53.80;;;;;;5079434;28;19944;-83
2023/05/18 04:53:08;;;;;;;;;;;16.10;53.80;;;;;;5080114;28;19955;-83
2023/05/18 04:55:33;;;;;;;;;;;16.10;53.70;;;;;;5079213;28;19973;-83
2023/05/18 04:58:09;;;;;;;;;;;16.10;53.70;;;;;;5097379;28;20278;-83
2023/05/18 05:00:41;;;;;;;;;;;16.10;53.60;;;;;;5080704;28;20189;-82
2023/05/18 05:03:13;;;;;;;;;;;16.20;53.60;;;;;;5079954;28;20305;-83
2023/05/18 05:05:42;;;;;;;;;;;16.20;53.60;;;;;;5081293;28;19908;-83
2023/05/18 05:08:07;;;;;;;;;;;16.20;53.50;;;;;;5081582;28;19908;-83
2023/05/18 05:10:33;;;;;;;;;;;16.30;53.50;;;;;;5080262;28;19916;-83
2023/05/18 05:13:01;;;;;;;;;;;16.30;53.50;;;;;;5098803;28;19908;-83
2023/05/18 05:15:29;;;;;;;;;;;16.30;53.40;;;;;;5078617;28;19908;-82
2023/05/18 05:17:57;;;;;;;;;;;16.40;53.40;;;;;;5077704;28;19938;-83
2023/05/18 05:20:22;;;;;;;;;;;16.40;53.30;;;;;;5078621;28;19929;-83
2023/05/18 05:22:48;;;;;;;;;;;16.40;53.20;;;;;;5077920;28;19908;-82
2023/05/18 05:25:13;;;;;;;;;;;16.50;53.10;;;;;;5095445;28;19935;-83
2023/05/18 05:27:42;;;;;;;;;;;16.50;53.00;;;;;;5076835;28;20020;-83
2023/05/18 05:30:11;;;;;;;;;;;16.60;53.00;;;;;;5078825;28;19919;-83
2023/05/18 05:32:39;;;;;;;;;;;16.60;52.80;;;;;;5079782;28;19918;-83
2023/05/18 05:35:08;;;;;;;;;;;16.70;52.80;;;;;;5080442;28;19916;-83
2023/05/18 05:37:42;;;;;;;;;;;16.80;52.60;;;;;;5096537;28;19912;-83
2023/05/18 05:40:10;;;;;;;;;;;16.90;52.50;;;;;;5078603;28;19919;-83
2023/05/18 05:42:36;;;;;;;;;;;17.00;52.30;;;;;;5076545;28;19908;-83
2023/05/18 05:45:01;;;;;;;;;;;17.10;52.20;;;;;;5079851;28;19919;-83
2023/05/18 05:47:28;;;;;;;;;;;17.20;52.00;;;;;;5079626;28;19908;-83
2023/05/18 05:49:54;;;;;;;;;;;17.30;51.90;;;;;;5078903;28;19943;-83
2023/05/18 05:52:19;;;;;;;;;;;17.40;51.70;;;;;;5096318;28;19947;-83
2023/05/18 05:54:48;;;;;;;;;;;17.50;51.60;;;;;;5098889;28;19916;-83
2023/05/18 05:57:26;;;;;;;;;;;17.60;51.50;;;;;;5081219;28;19973;-83
2023/05/18 05:59:55;;;;;;;;;;;17.60;51.30;;;;;;5079484;28;20010;-83
2023/05/18 06:02:20;;;;;;;;;;;17.70;51.10;;;;;;5079221;28;19916;-83
2023/05/18 06:04:46;;;;;;;;;;;17.80;51.10;;;;;;5076731;28;19908;-83
2023/05/18 06:07:12;;;;;;;;;;;17.90;51.10;;;;;;5079940;28;20221;-83
2023/05/18 06:09:37;;;;;;;;;;;18.00;51.10;;;;;;5078158;28;19908;-83
2023/05/18 06:12:06;;;;;;;;;;;18.10;51.10;;;;;;5077415;28;19939;-83
2023/05/18 06:14:32;;;;;;;;;;;18.10;51.10;;;;;;5094600;28;19936;-83
2023/05/18 06:16:57;;;;;;;;;;;18.20;51.10;;;;;;5076509;28;19943;-83
2023/05/18 06:19:23;;;;;;;;;;;18.30;51.20;;;;;;5077358;28;19965;-83
2023/05/18 06:21:49;;;;;;;;;;;18.40;51.30;;;;;;5077864;28;19908;-83
2023/05/18 06:24:15;;;;;;;;;;;18.50;51.50;;;;;;5078250;28;19919;-83
2023/05/18 06:26:50;;;;;;;;;;;18.60;51.30;;;;;;5078772;28;19908;-83
2023/05/18 06:29:20;;;;;;;;;;;18.70;51.50;;;;;;5078436;28;20274;-80
2023/05/18 06:31:56;;;;;;;;;;;18.80;51.20;;;;;;5079231;28;20014;-81
2023/05/18 06:34:21;;;;;;;;;;;18.90;51.10;;;;;;5095200;28;20302;-81
2023/05/18 06:36:47;;;;;;;;;;;19.00;50.90;;;;;;5078059;28;19908;-80
2023/05/18 06:39:13;;;;;;;;;;;19.10;51.10;;;;;;5078020;28;20282;-80
2023/05/18 06:41:43;;;;;;;;;;;19.20;50.40;;;;;;5078263;28;19919;-80
2023/05/18 06:44:09;;;;;;;;;;;19.40;50.40;;;;;;5078823;28;19919;-81
2023/05/18 06:46:35;;;;;;;;;;;19.60;50.10;;;;;;5076860;28;19908;-80
2023/05/18 06:49:00;;;;;;;;;;;19.90;49.90;;;;;;5095072;28;20049;-80
2023/05/18 06:51:30;;;;;;;;;;;20.20;49.50;;;;;;5076675;28;19933;-80
2023/05/18 06:53:55;;;;;;;;;;;20.40;49.10;;;;;;5076511;28;19970;-80
2023/05/18 06:56:24;;;;;;;;;;;20.70;48.80;;;;;;5094471;28;19951;-82
2023/05/18 06:58:50;;;;;;;;;;;21.00;48.40;;;;;;5075672;28;19912;-81
2023/05/18 07:01:16;;;;;;;;;;;21.40;48.10;;;;;;5075971;28;19916;-80
2023/05/18 07:03:45;;;;;;;;;;;21.70;47.60;;;;;;5076267;28;19977;-81
2023/05/18 07:06:10;;;;;;;;;;;22.00;47.20;;;;;;5078393;28;20159;-81
2023/05/18 07:08:36;;;;;;;;;;;22.40;46.80;;;;;;5076800;28;20313;-81
2023/05/18 07:11:02;;;;;;;;;;;22.70;46.50;;;;;;5094250;28;20221;-81
2023/05/18 07:13:31;;;;;;;;;;;22.90;46.10;;;;;;5076626;28;19908;-81
2023/05/18 07:15:56;;;;;;;;;;;23.20;45.80;;;;;;5076904;28;20176;-80
2023/05/18 07:18:25;;;;;;;;;;;23.40;45.60;;;;;;5077907;28;20297;-80
2023/05/18 07:20:53;;;;;;;;;;;23.60;45.40;;;;;;5096188;28;19908;-81
2023/05/18 07:23:22;;;;;;;;;;;23.80;45.10;;;;;;5085301;28;19908;-81
2023/05/18 07:25:51;;;;;;;;;;;24.00;44.80;;;;;;5093552;28;20174;-80
2023/05/18 07:28:19;;;;;;;;;;;24.30;44.70;;;;;;5075353;28;20011;-80
2023/05/18 07:30:48;;;;;;;;;;;24.50;44.40;;;;;;5092566;28;19927;-80
2023/05/18 07:33:16;;;;;;;;;;;24.80;44.10;;;;;;5072204;28;19924;-80
2023/05/18 07:35:42;;;;;;;;;;;24.90;43.90;;;;;;5072779;28;20054;-81
2023/05/18 07:38:08;;;;;;;;;;;25.10;43.70;;;;;;5072100;28;19998;-80
2023/05/18 07:40:33;;;;;;;;;;;25.30;43.60;;;;;;5072895;28;19990;-81
2023/05/18 07:43:20;;;;;;;;;;;25.40;43.50;;;;;;5074761;28;20339;-81
2023/05/18 07:45:49;;;;;;;;;;;25.50;43.30;;;;;;5074609;28;19969;-81
2023/05/18 07:48:22;;;;;;;;;;;25.70;43.20;;;;;;5073601;28;19908;-81
2023/05/18 07:50:54;;;;;;;;;;;25.90;43.00;;;;;;5071436;28;20007;-81
2023/05/18 07:53:20;;;;;;;;;;;26.10;42.80;;;;;;5072818;28;19913;-81
2023/05/18 07:55:49;;;;;;;;;;;26.20;42.60;;;;;;5072176;28;19923;-80
2023/05/18 07:58:14;;;;;;;;;;;26.40;42.50;;;;;;5072160;28;19912;-80
2023/05/18 08:00:59;;;;;;;;;;;26.60;42.30;;;;;;5073138;28;19916;-81
2023/05/18 08:03:40;;;;;;;;;;;26.70;42.10;;;;;;5072344;28;19913;-81
2023/05/18 08:06:09;;;;;;;;;;;26.90;41.90;;;;;;5073168;28;19940;-81
2023/05/18 08:08:39;;;;;;;;;;;27.10;41.80;;;;;;5072160;28;19942;-81
2023/05/18 08:11:06;;;;;;;;;;;27.30;41.60;;;;;;5073848;28;19909;-80
2023/05/18 08:13:35;;;;;;;;;;;27.40;41.50;;;;;;5076923;28;20188;-80
2023/05/18 08:16:03;;;;;;;;;;;27.50;41.50;;;;;;5075646;28;19916;-81
2023/05/18 08:18:32;;;;;;;;;;;27.60;41.40;;;;;;5076494;28;19920;-81
2023/05/18 08:20:59;;;;;;;;;;;27.70;41.20;;;;;;5075680;28;19908;-81
2023/05/18 08:23:24;;;;;;;;;;;27.90;41.00;;;;;;5073275;28;19934;-81
2023/05/18 08:25:50;;;;;;;;;;;27.90;40.80;;;;;;5074976;28;19909;-82
2023/05/18 08:28:16;;;;;;;;;;;28.00;40.80;;;;;;5074740;28;19912;-81
2023/05/18 08:30:41;;;;;;;;;;;28.10;40.70;;;;;;5075491;28;19914;-81
2023/05/18 08:33:34;;;;;;;;;;;28.20;40.50;;;;;;5075576;28;19912;-81
2023/05/18 08:35:59;;;;;;;;;;;28.30;40.40;;;;;;5096322;28;19916;-81
2023/05/18 08:38:28;;;;;;;;;;;28.50;40.30;;;;;;5078259;28;20289;-81
2023/05/18 08:40:54;;;;;;;;;;;28.60;40.10;;;;;;5078527;28;19908;-80
2023/05/18 08:43:32;;;;;;;;;;;28.70;39.90;;;;;;5095303;28;19919;-81
2023/05/18 08:46:04;;;;;;;;;;;28.90;39.80;;;;;;5077910;28;19904;-82
2023/05/18 08:48:52;;;;;;;;;;;29.00;39.70;;;;;;5078397;28;19908;-80
2023/05/18 08:51:21;;;;;;;;;;;29.10;39.60;;;;;;5085081;28;20338;-81
2023/05/18 08:54:09;;;;;;;;;;;29.30;39.40;;;;;;5078754;28;19926;-81
2023/05/18 08:56:38;;;;;;;;;;;29.40;39.20;;;;;;5078564;28;19918;-81
2023/05/18 08:59:08;;;;;;;;;;;29.60;39.10;;;;;;5078843;28;19919;-81
2023/05/18 09:01:34;;;;;;;;;;;29.60;39.10;;;;;;5077737;28;19908;-81
2023/05/18 09:04:00;;;;;;;;;;;29.70;38.80;;;;;;5077229;28;19908;-80
2023/05/18 09:06:29;;;;;;;;;;;29.70;38.80;;;;;;5077941;28;20019;-80
2023/05/18 09:08:57;;;;;;;;;;;29.80;38.90;;;;;;5095180;28;19930;-81
2023/05/18 09:11:23;;;;;;;;;;;29.90;38.80;;;;;;5095775;28;20159;-80
2023/05/18 09:13:56;;;;;;;;;;;29.90;38.70;;;;;;5095211;28;19935;-81
2023/05/18 09:16:25;;;;;;;;;;;30.00;38.50;;;;;;5076593;28;19908;-81
2023/05/18 09:18:51;;;;;;;;;;;30.00;38.40;;;;;;5094845;28;20307;-82
2023/05/18 09:21:19;;;;;;;;;;;30.10;38.50;;;;;;5077877;28;20046;-80
2023/05/18 09:23:46;;;;;;;;;;;30.10;38.60;;;;;;5092324;28;19919;-81
2023/05/18 09:26:14;;;;;;;;;;;30.00;38.50;;;;;;5076728;28;19908;-78
2023/05/18 09:28:45;;;;;;;;;;;30.00;38.50;;;;;;5076127;28;20151;-79
2023/05/18 09:31:18;;;;;;;;;;;30.10;38.50;;;;;;5074722;28;19908;-78
2023/05/18 09:33:45;;;;;;;;;;;30.00;38.50;;;;;;5092850;28;19927;-78
2023/05/18 09:36:11;;;;;;;;;;;29.80;38.50;;;;;;5092681;28;19997;-78
2023/05/18 09:38:37;;;;;;;;;;;29.60;38.70;;;;;;5073649;28;19912;-78
2023/05/18 09:41:02;;;;;;;;;;;29.30;38.70;;;;;;5074244;28;19970;-78
2023/05/18 09:43:28;;;;;;;;;;;28.90;39.00;;;;;;5092012;28;19994;-78
2023/05/18 09:45:53;;;;;;;;;;;28.40;39.20;;;;;;5073657;28;19919;-79
2023/05/18 09:48:22;;;;;;;;;;;27.80;39.40;;;;;;5073009;28;19916;-78
2023/05/18 09:50:51;;;;;;;;;;;27.30;39.80;;;;;;5071993;28;20286;-79
2023/05/18 09:53:23;;;;;;;;;;;26.80;40.10;;;;;;5074097;28;19919;-80
2023/05/18 09:55:49;;;;;;;;;;;26.40;40.40;;;;;;5092059;28;19998;-79
2023/05/18 09:58:17;;;;;;;;;;;26.10;40.70;;;;;;5090911;28;20101;-79
2023/05/18 10:00:52;;;;;;;;;;;25.70;40.90;;;;;;5074139;28;19954;-79
2023/05/18 10:03:30;;;;;;;;;;;25.50;41.10;;;;;;5072444;28;19908;-79
2023/05/18 10:06:02;;;;;;;;;;;25.30;41.40;;;;;;5073056;28;19935;-77
2023/05/18 10:08:28;;;;;;;;;;;25.10;41.40;;;;;;5073707;28;20264;-77
2023/05/18 10:10:53;;;;;;;;;;;25.00;41.70;;;;;;5068433;28;20340;-78
2023/05/18 10:13:19;;;;;;;;;;;24.90;41.80;;;;;;5053722;28;19908;-79
2023/05/18 10:15:46;;;;;;;;;;;24.80;41.80;;;;;;5072395;28;19908;-79
2023/05/18 10:18:14;;;;;;;;;;;24.70;42.00;;;;;;5050855;28;19919;-78
2023/05/18 10:20:43;;;;;;;;;;;24.50;42.10;;;;;;5052194;28;20286;-79
2023/05/18 10:23:10;;;;;;;;;;;24.40;42.30;;;;;;5069359;28;19909;-78
2023/05/18 10:25:36;;;;;;;;;;;24.20;42.50;;;;;;5064743;28;19923;-77
2023/05/18 10:28:06;;;;;;;;;;;24.20;42.60;;;;;;5089114;28;19912;-79
2023/05/18 10:30:35;;;;;;;;;;;24.10;42.80;;;;;;5088586;28;20006;-79
2023/05/18 10:33:08;;;;;;;;;;;23.90;42.80;;;;;;5069319;28;20170;-79
2023/05/18 10:35:48;;;;;;;;;;;23.80;43.00;;;;;;5066182;28;20038;-81
2023/05/18 10:38:17;;;;;;;;;;;23.80;43.10;;;;;;5066724;28;20364;-81
2023/05/18 10:40:48;;;;;;;;;;;23.70;43.30;;;;;;5049113;28;20032;-82
2023/05/18 10:43:15;;;;;;;;;;;23.60;43.40;;;;;;5047212;28;20003;-81
2023/05/18 10:45:45;;;;;;;;;;;23.50;43.50;;;;;;5047706;28;19917;-81
2023/05/18 10:48:12;;;;;;;;;;;23.40;43.60;;;;;;5051371;28;20151;-81
2023/05/18 10:50:39;;;;;;;;;;;23.30;43.60;;;;;;5086815;28;19954;-81
2023/05/18 10:53:08;;;;;;;;;;;23.30;43.80;;;;;;5070805;28;19970;-80
2023/05/18 10:55:54;;;;;;;;;;;23.20;43.90;;;;;;5070697;28;19965;-81
2023/05/18 10:58:30;;;;;;;;;;;23.10;43.90;;;;;;5066193;28;20214;-81
2023/05/18 11:01:00;;;;;;;;;;;23.10;43.70;;;;;;5051337;28;20156;-81
2023/05/18 11:03:32;;;;;;;;;;;23.00;44.00;;;;;;5051788;28;20201;-81
2023/05/18 11:06:14;;;;;;;;;;;23.00;44.20;;;;;;5052436;28;19912;-82
2023/05/18 11:08:49;;;;;;;;;;;22.90;44.30;;;;;;5069565;28;19905;-81
2023/05/18 11:11:15;;;;;;;;;;;22.90;44.40;;;;;;5070888;28;19912;-81
2023/05/18 11:13:46;;;;;;;;;;;22.80;44.40;;;;;;5068455;28;19909;-81
2023/05/18 11:16:28;;;;;;;;;;;22.70;44.50;;;;;;5065909;28;19919;-82
2023/05/18 11:19:12;;;;;;;;;;;22.70;44.60;;;;;;5069326;28;19918;-81
2023/05/18 11:21:55;;;;;;;;;;;22.70;44.70;;;;;;5071167;28;19978;-81
2023/05/18 11:24:35;;;;;;;;;;;22.60;44.80;;;;;;5068838;28;19920;-81
2023/05/18 11:27:09;;;;;;;;;;;22.60;44.90;;;;;;5069901;28;19909;-81
2023/05/18 11:29:43;;;;;;;;;;;22.60;45.00;;;;;;5085898;28;20563;-80
2023/05/18 11:32:30;;;;;;;;;;;22.50;44.90;;;;;;5069065;28;19912;-81
2023/05/18 11:34:59;;;;;;;;;;;22.50;45.10;;;;;;5084670;28;19968;-81
2023/05/18 11:37:37;;;;;;;;;;;22.40;44.70;;;;;;5072228;28;19908;-81
2023/05/18 11:40:08;;;;;;;;;;;22.40;44.80;;;;;;5089646;28;19923;-80
2023/05/18 11:42:40;;;;;;;;;;;22.30;44.90;;;;;;5090832;28;19932;-81
2023/05/18 11:45:17;;;;;;;;;;;22.20;44.90;;;;;;5071313;28;20119;-81
2023/05/18 11:47:43;;;;;;;;;;;22.20;44.70;;;;;;5075390;28;20275;-80
2023/05/18 11:50:10;;;;;;;;;;;22.20;44.80;;;;;;5077332;28;20296;-81
2023/05/18 11:53:01;;;;;;;;;;;22.20;45.10;;;;;;5076945;28;19916;-81
2023/05/18 11:55:36;;;;;;;;;;;22.10;45.20;;;;;;5075686;28;19915;-81
2023/05/18 11:58:02;;;;;;;;;;;22.10;45.40;;;;;;5073567;28;19908;-80
2023/05/18 12:00:29;;;;;;;;;;;22.10;45.60;;;;;;5074011;28;19994;-80
2023/05/18 12:02:55;;;;;;;;;;;22.10;45.50;;;;;;5093153;28;19919;-80
2023/05/18 12:05:24;;;;;;;;;;;22.00;45.50;;;;;;5074081;28;19920;-81
2023/05/18 12:07:53;;;;;;;;;;;22.00;45.30;;;;;;5089536;28;19916;-81
2023/05/18 12:10:19;;;;;;;;;;;22.00;45.50;;;;;;5073506;28;19915;-80
2023/05/18 12:12:51;;;;;;;;;;;21.90;45.50;;;;;;5091389;28;20517;-80
2023/05/18 12:15:20;;;;;;;;;;;21.90;45.70;;;;;;5073385;28;19908;-80
2023/05/18 12:17:46;;;;;;;;;;;21.90;45.80;;;;;;5071715;28;20382;-80
2023/05/18 12:20:14;;;;;;;;;;;21.80;45.80;;;;;;5089164;28;19911;-80
2023/05/18 12:22:55;;;;;;;;;;;21.80;45.90;;;;;;5088636;28;19919;-80
2023/05/18 12:25:28;;;;;;;;;;;21.80;46.00;;;;;;5069549;28;20300;-80
2023/05/18 12:27:56;;;;;;;;;;;21.80;46.00;;;;;;5073273;28;19916;-80
2023/05/18 12:30:45;;;;;;;;;;;21.80;46.00;;;;;;5071703;28;19912;-80
2023/05/18 12:33:14;;;;;;;;;;;21.70;45.80;;;;;;5071547;28;19947;-80
2023/05/18 12:35:39;;;;;;;;;;;21.70;45.80;;;;;;5070438;28;19946;-80
2023/05/18 12:38:06;;;;;;;;;;;21.70;45.80;;;;;;5071589;28;19916;-80
2023/05/18 12:40:41;;;;;;;;;;;21.70;45.80;;;;;;5071353;28;19912;-80
2023/05/18 12:43:10;;;;;;;;;;;21.60;45.80;;;;;;5087931;28;19955;-80
2023/05/18 12:45:36;;;;;;;;;;;21.60;45.90;;;;;;5071476;28;20285;-80
2023/05/18 12:48:13;;;;;;;;;;;21.60;46.00;;;;;;5091651;28;20194;-80
2023/05/18 12:50:46;;;;;;;;;;;21.60;46.20;;;;;;5070938;28;20188;-80
2023/05/18 12:53:18;;;;;;;;;;;21.60;46.20;;;;;;5071542;28;19908;-80
2023/05/18 12:55:54;;;;;;;;;;;21.50;46.20;;;;;;5070740;28;19915;-81
2023/05/18 12:58:19;;;;;;;;;;;21.50;46.10;;;;;;5089952;28;19908;-80
2023/05/18 13:00:46;;;;;;;;;;;21.50;46.40;;;;;;5072942;28;19915;-80
2023/05/18 13:03:19;;;;;;;;;;;21.50;46.20;;;;;;5066917;28;19922;-80
2023/05/18 13:05:45;;;;;;;;;;;21.50;46.20;;;;;;5068425;28;19908;-81
2023/05/18 13:08:18;;;;;;;;;;;21.40;46.30;;;;;;5091234;28;19912;-80
2023/05/18 13:11:03;;;;;;;;;;;21.40;46.10;;;;;;5076476;28;19992;-80
2023/05/18 13:13:32;;;;;;;;;;;21.40;46.20;;;;;;5075400;28;19912;-80
2023/05/18 13:16:10;;;;;;;;;;;21.40;46.20;;;;;;5077075;28;20000;-83
2023/05/18 13:18:35;;;;;;;;;;;21.40;46.30;;;;;;5093694;28;19923;-83
2023/05/18 13:21:20;;;;;;;;;;;21.40;46.30;;;;;;5077734;28;19911;-83
2023/05/18 13:23:45;;;;;;;;;;;21.30;46.20;;;;;;5079161;28;20003;-83
2023/05/18 13:26:11;;;;;;;;;;;21.30;46.40;;;;;;5077553;28;19983;-83
2023/05/18 13:28:40;;;;;;;;;;;21.30;46.30;;;;;;5076007;28;19909;-83
2023/05/18 13:31:06;;;;;;;;;;;21.30;46.50;;;;;;5088094;28;19904;-82
2023/05/18 13:33:35;;;;;;;;;;;21.30;46.50;;;;;;5063451;28;19927;-83
2023/05/18 13:36:06;;;;;;;;;;;21.30;46.50;;;;;;5061017;28;19913;-83
2023/05/18 13:38:34;;;;;;;;;;;21.30;46.60;;;;;;5074033;28;19912;-81
2023/05/18 13:41:03;;;;;;;;;;;21.30;46.50;;;;;;5076982;28;19966;-83
2023/05/18 13:43:29;;;;;;;;;;;21.20;46.40;;;;;;5094956;28;19912;-83
2023/05/18 13:46:17;;;;;;;;;;;21.20;46.50;;;;;;5094607;28;20194;-81
2023/05/18 13:48:46;;;;;;;;;;;21.20;46.50;;;;;;5059292;28;19968;-80
2023/05/18 13:51:35;;;;;;;;;;;21.10;46.40;;;;;;5076919;28;19940;-81
2023/05/18 13:54:03;;;;;;;;;;;21.10;46.40;;;;;;5069227;28;19923;-80
2023/05/18 13:56:44;;;;;;;;;;;21.10;46.50;;;;;;5095891;28;19904;-80
2023/05/18 13:59:15;;;;;;;;;;;21.10;46.50;;;;;;5077631;28;20423;-80
2023/05/18 14:02:00;;;;;;;;;;;21.10;46.60;;;;;;5096218;28;19908;-80
2023/05/18 14:04:25;;;;;;;;;;;21.10;46.70;;;;;;5093328;28;20372;-82
2023/05/18 14:06:54;;;;;;;;;;;21.10;46.60;;;;;;5074107;28;20018;-81
2023/05/18 14:09:26;;;;;;;;;;;21.10;46.70;;;;;;5068538;28;19916;-81
2023/05/18 14:14:48;;;;;;;;;;;21.10;46.90;;;;;;5068559;28;19917;-79
2023/05/18 14:17:17;;;;;;;;;;;21.10;46.90;;;;;;5066744;28;20205;-80
2023/05/18 14:19:44;;;;;;;;;;;21.00;46.90;;;;;;5068691;28;20190;-80
2023/05/18 14:22:10;;;;;;;;;;;21.00;46.90;;;;;;5071606;28;20110;-80
2023/05/18 14:24:35;;;;;;;;;;;21.00;47.00;;;;;;5071523;28;19942;-81
2023/05/18 14:27:01;;;;;;;;;;;21.00;47.10;;;;;;5087476;28;19919;-80
2023/05/18 14:29:29;;;;;;;;;;;21.00;47.00;;;;;;5089635;28;20445;-81
2023/05/18 14:31:55;;;;;;;;;;;21.00;47.20;;;;;;5068108;28;19912;-81